sensor_id;sensor_type;location;lat;lon;timestamp;pressure;altitude;pressure_sealevel;temperature;humidity
44531;BME280;30240;47.418;0.700;2023-03-18T00:01:24;99744.2626953125;;;9.14;90.76
44531;BME280;30240;47.418;0.700;2023-03-18T00:03:49;99745.068359375;;;9.12;90.87
44531;BME280;30240;47.418;0.700;2023-03-18T00:06:16;99740.03295898438;;;9.12;90.87
44531;BME280;30240;47.418;0.700;2023-03-18T00:08:39;99747.96752929688;;;9.16;91.05
44531;BME280;30240;47.418;0.700;2023-03-18T00:11:04;99747.96752929688;;;9.16;91.05
44531;BME280;30240;47.418;0.700;2023-03-18T00:13:28;99758.89892578125;;;9.25;91.14
44531;BME280;30240;47.418;0.700;2023-03-18T00:15:54;99762.21313476562;;;9.33;91.01
44531;BME280;30240;47.418;0.700;2023-03-18T00:18:19;99757.56225585938;;;9.38;90.98
44531;BME280;30240;47.418;0.700;2023-03-18T00:20:44;99760.26611328125;;;9.43;90.9
44531;BME280;30240;47.418;0.700;2023-03-18T00:23:08;99760.26611328125;;;9.43;90.9
44531;BME280;30240;47.418;0.700;2023-03-18T00:25:34;99761.74926757812;;;9.47;91.1
44531;BME280;30240;47.418;0.700;2023-03-18T00:27:58;99764.14794921875;;;9.57;91.21
44531;BME280;30240;47.418;0.700;2023-03-18T00:30:24;99757.48291015625;;;9.71;91.49
44531;BME280;30240;47.418;0.700;2023-03-18T00:32:48;99758.57543945312;;;9.88;91.48
44531;BME280;30240;47.418;0.700;2023-03-18T00:35:14;99758.57543945312;;;9.88;91.48
44531;BME280;30240;47.418;0.700;2023-03-18T00:37:38;99735.32104492188;;;10.02;91.49
44531;BME280;30240;47.418;0.700;2023-03-18T00:40:06;99726.62353515625;;;10.12;91.49
44531;BME280;30240;47.418;0.700;2023-03-18T00:42:29;99745.81909179688;;;10.12;91.69
44531;BME280;30240;47.418;0.700;2023-03-18T00:44:53;99735.26000976562;;;10.15;91.82
44531;BME280;30240;47.418;0.700;2023-03-18T00:47:19;99735.26000976562;;;10.15;91.82
44531;BME280;30240;47.418;0.700;2023-03-18T00:49:43;99730.43212890625;;;10.17;91.87
44531;BME280;30240;47.418;0.700;2023-03-18T00:52:09;99742.49877929688;;;10.17;91.84
44531;BME280;30240;47.418;0.700;2023-03-18T00:54:33;99737.3779296875;;;10.2;91.76
44531;BME280;30240;47.418;0.700;2023-03-18T00:56:58;99730.96923828125;;;10.2;91.71
44531;BME280;30240;47.418;0.700;2023-03-18T00:59:23;99730.96923828125;;;10.2;91.71
44531;BME280;30240;47.418;0.700;2023-03-18T01:01:48;99727.06909179688;;;10.16;91.83
44531;BME280;30240;47.418;0.700;2023-03-18T01:04:14;99729.45556640625;;;10.13;91.91
44531;BME280;30240;47.418;0.700;2023-03-18T01:06:38;99723.29711914062;;;10.08;92.17
44531;BME280;30240;47.418;0.700;2023-03-18T01:09:05;99746.77124023438;;;10.05;92.19
44531;BME280;30240;47.418;0.700;2023-03-18T01:11:29;99746.77124023438;;;10.05;92.19
44531;BME280;30240;47.418;0.700;2023-03-18T01:13:54;99750.1708984375;;;10.05;92.24
44531;BME280;30240;47.418;0.700;2023-03-18T01:16:20;99750.45166015625;;;10.06;92.18
44531;BME280;30240;47.418;0.700;2023-03-18T01:18:44;99754.18701171875;;;10.08;92.11
44531;BME280;30240;47.418;0.700;2023-03-18T01:21:09;99754.88891601562;;;10.09;91.99
44531;BME280;30240;47.418;0.700;2023-03-18T01:23:34;99754.88891601562;;;10.09;91.99
44531;BME280;30240;47.418;0.700;2023-03-18T01:25:59;99753.74755859375;;;10.09;91.96
44531;BME280;30240;47.418;0.700;2023-03-18T01:28:24;99752.28271484375;;;10.09;91.89
44531;BME280;30240;47.418;0.700;2023-03-18T01:30:49;99747.29614257812;;;10.08;91.72
44531;BME280;30240;47.418;0.700;2023-03-18T01:33:14;99737.87231445312;;;10.09;91.62
44531;BME280;30240;47.418;0.700;2023-03-18T01:35:38;99731.89697265625;;;10.09;91.5
44531;BME280;30240;47.418;0.700;2023-03-18T01:38:04;99731.89697265625;;;10.09;91.5
44531;BME280;30240;47.418;0.700;2023-03-18T01:40:30;99737.41455078125;;;10.05;91.52
44531;BME280;30240;47.418;0.700;2023-03-18T01:42:56;99742.85278320312;;;10.01;91.43
44531;BME280;30240;47.418;0.700;2023-03-18T01:45:21;99739.6240234375;;;9.95;91.41
44531;BME280;30240;47.418;0.700;2023-03-18T01:47:45;99738.83056640625;;;9.99;91.3
44531;BME280;30240;47.418;0.700;2023-03-18T01:50:09;99738.83056640625;;;9.99;91.3
44531;BME280;30240;47.418;0.700;2023-03-18T01:52:33;99736.29760742188;;;9.95;91.3
44531;BME280;30240;47.418;0.700;2023-03-18T01:55:00;99734.90600585938;;;9.97;91.15
44531;BME280;30240;47.418;0.700;2023-03-18T01:57:24;99740.966796875;;;10.03;91.12
44531;BME280;30240;47.418;0.700;2023-03-18T01:59:51;99740.20385742188;;;9.99;91.12
44531;BME280;30240;47.418;0.700;2023-03-18T02:02:15;99740.20385742188;;;9.99;91.12
44531;BME280;30240;47.418;0.700;2023-03-18T02:04:40;99733.22143554688;;;9.98;91.24
44531;BME280;30240;47.418;0.700;2023-03-18T02:07:04;99727.2216796875;;;9.92;91.25
44531;BME280;30240;47.418;0.700;2023-03-18T02:09:29;99725.76293945312;;;9.88;91.43
44531;BME280;30240;47.418;0.700;2023-03-18T02:11:54;99723.93188476562;;;9.82;91.51
44531;BME280;30240;47.418;0.700;2023-03-18T02:14:23;99723.93188476562;;;9.82;91.51
44531;BME280;30240;47.418;0.700;2023-03-18T02:16:46;99722.39990234375;;;9.78;91.56
44531;BME280;30240;47.418;0.700;2023-03-18T02:19:13;99723.828125;;;9.77;91.66
44531;BME280;30240;47.418;0.700;2023-03-18T02:21:39;99726.36108398438;;;9.74;91.77
44531;BME280;30240;47.418;0.700;2023-03-18T02:24:05;99726.7822265625;;;9.71;91.92
44531;BME280;30240;47.418;0.700;2023-03-18T02:24:08;99726.7822265625;;;9.71;91.92
44531;BME280;30240;47.418;0.700;2023-03-18T02:26:28;99726.7822265625;;;9.71;91.92
44531;BME280;30240;47.418;0.700;2023-03-18T02:28:50;99725.36010742188;;;9.64;91.97
44531;BME280;30240;47.418;0.700;2023-03-18T02:31:14;99726.64794921875;;;9.66;92.1
44531;BME280;30240;47.418;0.700;2023-03-18T02:33:40;99723.51684570312;;;9.61;92.15
44531;BME280;30240;47.418;0.700;2023-03-18T02:36:06;99726.20239257812;;;9.56;92.2
44531;BME280;30240;47.418;0.700;2023-03-18T02:38:29;99726.20239257812;;;9.56;92.2
44531;BME280;30240;47.418;0.700;2023-03-18T02:40:54;99728.91235351562;;;9.56;92.22
44531;BME280;30240;47.418;0.700;2023-03-18T02:43:22;99726.4404296875;;;9.47;92.27
44531;BME280;30240;47.418;0.700;2023-03-18T02:45:49;99729.06494140625;;;9.42;92.4
44531;BME280;30240;47.418;0.700;2023-03-18T02:45:56;99729.06494140625;;;9.42;92.4
44531;BME280;30240;47.418;0.700;2023-03-18T02:46:04;99729.06494140625;;;9.42;92.4
44531;BME280;30240;47.418;0.700;2023-03-18T02:48:10;99713.14086914062;;;9.42;92.53
44531;BME280;30240;47.418;0.700;2023-03-18T02:50:33;99713.14086914062;;;9.42;92.53
44531;BME280;30240;47.418;0.700;2023-03-18T02:53:00;99720.654296875;;;9.4;92.64
44531;BME280;30240;47.418;0.700;2023-03-18T02:55:23;99721.91162109375;;;9.4;92.62
44531;BME280;30240;47.418;0.700;2023-03-18T02:57:48;99725.64086914062;;;9.39;92.52
44531;BME280;30240;47.418;0.700;2023-03-18T03:00:14;99728.9306640625;;;9.38;92.37
44531;BME280;30240;47.418;0.700;2023-03-18T03:02:39;99729.296875;;;9.39;92.27
44531;BME280;30240;47.418;0.700;2023-03-18T03:05:04;99729.296875;;;9.39;92.27
44531;BME280;30240;47.418;0.700;2023-03-18T03:07:29;99731.1767578125;;;9.38;92.22
44531;BME280;30240;47.418;0.700;2023-03-18T03:09:53;99731.591796875;;;9.42;92.12
44531;BME280;30240;47.418;0.700;2023-03-18T03:12:19;99734.33837890625;;;9.38;92.09
44531;BME280;30240;47.418;0.700;2023-03-18T03:14:44;99722.61962890625;;;9.35;91.95
44531;BME280;30240;47.418;0.700;2023-03-18T03:17:09;99722.61962890625;;;9.35;91.95
44531;BME280;30240;47.418;0.700;2023-03-18T03:19:34;99727.11181640625;;;9.38;91.96
44531;BME280;30240;47.418;0.700;2023-03-18T03:21:59;99726.27563476562;;;9.33;91.99
44531;BME280;30240;47.418;0.700;2023-03-18T03:24:24;99722.88818359375;;;9.31;92.03
44531;BME280;30240;47.418;0.700;2023-03-18T03:26:48;99728.92456054688;;;9.29;91.98
44531;BME280;30240;47.418;0.700;2023-03-18T03:29:13;99728.92456054688;;;9.29;91.98
44531;BME280;30240;47.418;0.700;2023-03-18T03:31:38;99730.57861328125;;;9.25;91.94
44531;BME280;30240;47.418;0.700;2023-03-18T03:34:03;99723.93188476562;;;9.28;91.91
44531;BME280;30240;47.418;0.700;2023-03-18T03:36:28;99728.90625;;;9.28;91.93
44531;BME280;30240;47.418;0.700;2023-03-18T03:38:53;99723.91967773438;;;9.26;92.02
44531;BME280;30240;47.418;0.700;2023-03-18T03:41:19;99723.91967773438;;;9.26;92.02
44531;BME280;30240;47.418;0.700;2023-03-18T03:43:44;99722.46704101562;;;9.22;92.12
44531;BME280;30240;47.418;0.700;2023-03-18T03:46:09;99721.73461914062;;;9.21;92.14
44531;BME280;30240;47.418;0.700;2023-03-18T03:48:34;99722.4365234375;;;9.19;92.23
44531;BME280;30240;47.418;0.700;2023-03-18T03:50:58;99723.20556640625;;;9.22;92.32
44531;BME280;30240;47.418;0.700;2023-03-18T03:53:25;99723.20556640625;;;9.22;92.32
44531;BME280;30240;47.418;0.700;2023-03-18T03:55:48;99723.15673828125;;;9.19;92.39
44531;BME280;30240;47.418;0.700;2023-03-18T03:58:13;99715.0634765625;;;9.16;92.5
44531;BME280;30240;47.418;0.700;2023-03-18T04:00:38;99719.95239257812;;;9.16;92.64
44531;BME280;30240;47.418;0.700;2023-03-18T04:03:03;99725.89111328125;;;9.12;92.79
44531;BME280;30240;47.418;0.700;2023-03-18T04:05:28;99725.89111328125;;;9.12;92.79
44531;BME280;30240;47.418;0.700;2023-03-18T04:07:54;99723.6572265625;;;9.07;92.78
44531;BME280;30240;47.418;0.700;2023-03-18T04:10:19;99720.1171875;;;9.12;92.92
44531;BME280;30240;47.418;0.700;2023-03-18T04:12:44;99727.40478515625;;;9.08;92.97
44531;BME280;30240;47.418;0.700;2023-03-18T04:15:09;99734.8388671875;;;9.1;93.03
44531;BME280;30240;47.418;0.700;2023-03-18T04:17:34;99734.8388671875;;;9.1;93.03
44531;BME280;30240;47.418;0.700;2023-03-18T04:19:59;99735.498046875;;;9.08;93.12
44531;BME280;30240;47.418;0.700;2023-03-18T04:22:24;99737.99438476562;;;9.04;93.23
44531;BME280;30240;47.418;0.700;2023-03-18T04:24:48;99740.70434570312;;;9.05;93.26
44531;BME280;30240;47.418;0.700;2023-03-18T04:27:14;99733.2763671875;;;9.04;93.26
44531;BME280;30240;47.418;0.700;2023-03-18T04:29:38;99733.2763671875;;;9.04;93.26
44531;BME280;30240;47.418;0.700;2023-03-18T04:32:04;99735.40649414062;;;9.03;93.35
44531;BME280;30240;47.418;0.700;2023-03-18T04:34:28;99729.99267578125;;;9.01;93.47
44531;BME280;30240;47.418;0.700;2023-03-18T04:36:54;99734.29565429688;;;9.03;93.46
44531;BME280;30240;47.418;0.700;2023-03-18T04:39:18;99728.96118164062;;;9.03;93.55
44531;BME280;30240;47.418;0.700;2023-03-18T04:41:43;99726.61743164062;;;9.05;93.59
44531;BME280;30240;47.418;0.700;2023-03-18T04:44:08;99726.61743164062;;;9.05;93.59
44531;BME280;30240;47.418;0.700;2023-03-18T04:46:33;99727.734375;;;9.07;93.59
44531;BME280;30240;47.418;0.700;2023-03-18T04:48:58;99728.42407226562;;;9.04;93.63
44531;BME280;30240;47.418;0.700;2023-03-18T04:51:24;99733.00170898438;;;9.1;93.7
44531;BME280;30240;47.418;0.700;2023-03-18T04:53:49;99730.3466796875;;;9.11;93.72
44531;BME280;30240;47.418;0.700;2023-03-18T04:56:14;99730.3466796875;;;9.11;93.72
44531;BME280;30240;47.418;0.700;2023-03-18T04:58:38;99731.591796875;;;9.1;93.74
44531;BME280;30240;47.418;0.700;2023-03-18T05:01:04;99733.90502929688;;;9.16;93.79
44531;BME280;30240;47.418;0.700;2023-03-18T05:03:29;99726.11694335938;;;9.18;93.72
44531;BME280;30240;47.418;0.700;2023-03-18T05:05:53;99720.93505859375;;;9.21;93.69
44531;BME280;30240;47.418;0.700;2023-03-18T05:08:18;99720.93505859375;;;9.21;93.69
44531;BME280;30240;47.418;0.700;2023-03-18T05:10:43;99730.72509765625;;;9.19;93.69
44531;BME280;30240;47.418;0.700;2023-03-18T05:13:08;99725.62255859375;;;9.22;93.76
44531;BME280;30240;47.418;0.700;2023-03-18T05:15:34;99724.20043945312;;;9.21;93.76
44531;BME280;30240;47.418;0.700;2023-03-18T05:17:59;99713.90380859375;;;9.21;93.72
44531;BME280;30240;47.418;0.700;2023-03-18T05:20:24;99713.90380859375;;;9.21;93.72
44531;BME280;30240;47.418;0.700;2023-03-18T05:22:48;99726.89208984375;;;9.25;93.74
44531;BME280;30240;47.418;0.700;2023-03-18T05:25:14;99723.18725585938;;;9.24;93.73
44531;BME280;30240;47.418;0.700;2023-03-18T05:27:39;99714.5751953125;;;9.24;93.75
44531;BME280;30240;47.418;0.700;2023-03-18T05:30:05;99720.51391601562;;;9.28;93.72
44531;BME280;30240;47.418;0.700;2023-03-18T05:32:28;99720.51391601562;;;9.28;93.72
44531;BME280;30240;47.418;0.700;2023-03-18T05:34:53;99728.20434570312;;;9.22;93.64
44531;BME280;30240;47.418;0.700;2023-03-18T05:37:18;99719.83032226562;;;9.25;93.66
44531;BME280;30240;47.418;0.700;2023-03-18T05:39:44;99713.03100585938;;;9.28;93.64
44531;BME280;30240;47.418;0.700;2023-03-18T05:42:09;99714.48364257812;;;9.28;93.55
44531;BME280;30240;47.418;0.700;2023-03-18T05:44:34;99714.48364257812;;;9.28;93.55
44531;BME280;30240;47.418;0.700;2023-03-18T05:46:59;99722.47924804688;;;9.31;93.57
44531;BME280;30240;47.418;0.700;2023-03-18T05:49:24;99719.81201171875;;;9.33;93.57
44531;BME280;30240;47.418;0.700;2023-03-18T05:51:49;99718.78051757812;;;9.35;93.41
44531;BME280;30240;47.418;0.700;2023-03-18T05:54:14;99720.13549804688;;;9.38;93.29
44531;BME280;30240;47.418;0.700;2023-03-18T05:56:38;99720.13549804688;;;9.38;93.29
44531;BME280;30240;47.418;0.700;2023-03-18T05:59:04;99715.87524414062;;;9.36;93.17
44531;BME280;30240;47.418;0.700;2023-03-18T06:01:28;99716.95556640625;;;9.36;93.16
44531;BME280;30240;47.418;0.700;2023-03-18T06:03:53;99718.34106445312;;;9.36;93.04
44531;BME280;30240;47.418;0.700;2023-03-18T06:06:18;99717.66967773438;;;9.36;93.07
44531;BME280;30240;47.418;0.700;2023-03-18T06:08:44;99718.71948242188;;;9.39;92.96
44531;BME280;30240;47.418;0.700;2023-03-18T06:11:08;99718.71948242188;;;9.39;92.96
44531;BME280;30240;47.418;0.700;2023-03-18T06:13:33;99711.99340820312;;;9.43;92.74
44531;BME280;30240;47.418;0.700;2023-03-18T06:15:59;99710.15014648438;;;9.44;92.62
44531;BME280;30240;47.418;0.700;2023-03-18T06:18:23;99715.64331054688;;;9.5;92.29
44531;BME280;30240;47.418;0.700;2023-03-18T06:20:48;99718.06030273438;;;9.49;92.26
44531;BME280;30240;47.418;0.700;2023-03-18T06:23:13;99718.06030273438;;;9.49;92.26
44531;BME280;30240;47.418;0.700;2023-03-18T06:25:39;99719.8486328125;;;9.47;92.22
44531;BME280;30240;47.418;0.700;2023-03-18T06:28:03;99713.28125;;;9.42;92.24
44531;BME280;30240;47.418;0.700;2023-03-18T06:30:28;99720.9716796875;;;9.49;92.25
44531;BME280;30240;47.418;0.700;2023-03-18T06:32:53;99715.56396484375;;;9.51;92.05
44531;BME280;30240;47.418;0.700;2023-03-18T06:35:18;99715.56396484375;;;9.51;92.05
44531;BME280;30240;47.418;0.700;2023-03-18T06:37:43;99724.0966796875;;;9.51;91.95
44531;BME280;30240;47.418;0.700;2023-03-18T06:40:09;99728.955078125;;;9.61;91.85
44531;BME280;30240;47.418;0.700;2023-03-18T06:42:34;99731.85424804688;;;9.69;91.55
44531;BME280;30240;47.418;0.700;2023-03-18T06:44:58;99731.97631835938;;;9.74;91.4
44531;BME280;30240;47.418;0.700;2023-03-18T06:47:23;99731.97631835938;;;9.74;91.4
44531;BME280;30240;47.418;0.700;2023-03-18T06:49:49;99738.623046875;;;9.77;91.32
44531;BME280;30240;47.418;0.700;2023-03-18T06:52:14;99748.046875;;;9.88;91.16
44531;BME280;30240;47.418;0.700;2023-03-18T06:54:39;99740.07568359375;;;9.87;91.05
44531;BME280;30240;47.418;0.700;2023-03-18T06:57:03;99749.10888671875;;;9.95;91.0
44531;BME280;30240;47.418;0.700;2023-03-18T06:59:28;99749.10888671875;;;9.95;91.0
44531;BME280;30240;47.418;0.700;2023-03-18T07:01:53;99746.2158203125;;;9.91;90.82
44531;BME280;30240;47.418;0.700;2023-03-18T07:04:18;99738.47045898438;;;9.94;90.89
44531;BME280;30240;47.418;0.700;2023-03-18T07:06:43;99744.580078125;;;9.95;90.83
44531;BME280;30240;47.418;0.700;2023-03-18T07:09:08;99741.2353515625;;;10.03;90.73
44531;BME280;30240;47.418;0.700;2023-03-18T07:11:33;99741.2353515625;;;10.03;90.73
44531;BME280;30240;47.418;0.700;2023-03-18T07:13:58;99748.5595703125;;;9.99;90.7
44531;BME280;30240;47.418;0.700;2023-03-18T07:16:23;99741.80297851562;;;10.02;90.68
44531;BME280;30240;47.418;0.700;2023-03-18T07:18:48;99753.13110351562;;;10.05;90.72
44531;BME280;30240;47.418;0.700;2023-03-18T07:21:13;99749.24926757812;;;10.09;90.62
44531;BME280;30240;47.418;0.700;2023-03-18T07:23:38;99749.24926757812;;;10.09;90.62
44531;BME280;30240;47.418;0.700;2023-03-18T07:26:04;99754.20532226562;;;10.06;90.61
44531;BME280;30240;47.418;0.700;2023-03-18T07:28:28;99759.26513671875;;;10.17;90.59
44531;BME280;30240;47.418;0.700;2023-03-18T07:30:54;99759.43603515625;;;10.16;90.17
44531;BME280;30240;47.418;0.700;2023-03-18T07:33:19;99767.38891601562;;;10.16;90.26
44531;BME280;30240;47.418;0.700;2023-03-18T07:35:43;99761.44409179688;;;10.23;90.42
44531;BME280;30240;47.418;0.700;2023-03-18T07:38:09;99761.44409179688;;;10.23;90.42
44531;BME280;30240;47.418;0.700;2023-03-18T07:40:34;99757.51342773438;;;10.19;90.18
44531;BME280;30240;47.418;0.700;2023-03-18T07:45:23;99763.2568359375;;;10.54;89.77
44531;BME280;30240;47.418;0.700;2023-03-18T07:47:48;99749.76806640625;;;10.34;89.56
44531;BME280;30240;47.418;0.700;2023-03-18T07:50:14;99749.76806640625;;;10.34;89.56
44531;BME280;30240;47.418;0.700;2023-03-18T07:52:38;99755.76782226562;;;10.36;89.65
44531;BME280;30240;47.418;0.700;2023-03-18T07:55:04;99748.828125;;;10.47;89.33
44531;BME280;30240;47.418;0.700;2023-03-18T07:57:29;99750.42114257812;;;10.86;88.82
44531;BME280;30240;47.418;0.700;2023-03-18T07:59:53;99725.36010742188;;;11.08;87.83
44531;BME280;30240;47.418;0.700;2023-03-18T08:02:18;99725.36010742188;;;11.08;87.83
44531;BME280;30240;47.418;0.700;2023-03-18T08:04:43;99707.81860351562;;;11.12;87.51
44531;BME280;30240;47.418;0.700;2023-03-18T08:07:09;99718.90869140625;;;11.28;87.43
44531;BME280;30240;47.418;0.700;2023-03-18T08:09:33;99729.96826171875;;;11.03;87.49
44531;BME280;30240;47.418;0.700;2023-03-18T08:11:59;99736.41357421875;;;10.96;87.86
44531;BME280;30240;47.418;0.700;2023-03-18T08:14:23;99736.41357421875;;;10.96;87.86
44531;BME280;30240;47.418;0.700;2023-03-18T08:16:48;99748.62670898438;;;11.02;88.4
44531;BME280;30240;47.418;0.700;2023-03-18T08:19:14;99755.96923828125;;;11.02;87.79
44531;BME280;30240;47.418;0.700;2023-03-18T08:21:38;99755.419921875;;;10.95;87.5
44531;BME280;30240;47.418;0.700;2023-03-18T08:24:04;99758.55712890625;;;11.02;87.38
44531;BME280;30240;47.418;0.700;2023-03-18T08:26:28;99758.55712890625;;;11.02;87.38
44531;BME280;30240;47.418;0.700;2023-03-18T08:28:53;99764.11743164062;;;11.0;87.46
44531;BME280;30240;47.418;0.700;2023-03-18T08:31:18;99772.705078125;;;11.12;87.55
44531;BME280;30240;47.418;0.700;2023-03-18T08:33:44;99767.41943359375;;;11.1;86.97
44531;BME280;30240;47.418;0.700;2023-03-18T08:36:08;99767.98706054688;;;11.42;86.67
44531;BME280;30240;47.418;0.700;2023-03-18T08:38:33;99767.98706054688;;;11.42;86.67
44531;BME280;30240;47.418;0.700;2023-03-18T08:40:58;99749.4384765625;;;11.4;86.21
44531;BME280;30240;47.418;0.700;2023-03-18T08:43:24;99754.7607421875;;;11.61;86.05
44531;BME280;30240;47.418;0.700;2023-03-18T08:45:50;99753.7353515625;;;11.82;85.89
44531;BME280;30240;47.418;0.700;2023-03-18T08:48:13;99755.15747070312;;;12.09;85.49
44531;BME280;30240;47.418;0.700;2023-03-18T08:50:38;99755.15747070312;;;12.09;85.49
44531;BME280;30240;47.418;0.700;2023-03-18T08:53:03;99760.0341796875;;;11.99;85.65
44531;BME280;30240;47.418;0.700;2023-03-18T08:55:30;99753.35693359375;;;12.13;85.43
44531;BME280;30240;47.418;0.700;2023-03-18T08:57:54;99747.4853515625;;;12.18;84.82
44531;BME280;30240;47.418;0.700;2023-03-18T09:00:19;99723.01025390625;;;12.41;84.41
44531;BME280;30240;47.418;0.700;2023-03-18T09:02:43;99723.01025390625;;;12.41;84.41
44531;BME280;30240;47.418;0.700;2023-03-18T09:05:09;99719.677734375;;;12.58;83.64
44531;BME280;30240;47.418;0.700;2023-03-18T09:07:34;99711.75537109375;;;12.72;83.89
44531;BME280;30240;47.418;0.700;2023-03-18T09:09:58;99708.92333984375;;;12.48;84.1
44531;BME280;30240;47.418;0.700;2023-03-18T09:12:23;99690.46630859375;;;12.51;83.75
44531;BME280;30240;47.418;0.700;2023-03-18T09:14:49;99712.48168945312;;;12.62;83.31
44531;BME280;30240;47.418;0.700;2023-03-18T09:17:13;99712.48168945312;;;12.62;83.31
44531;BME280;30240;47.418;0.700;2023-03-18T09:19:38;99706.32934570312;;;12.8;83.44
44531;BME280;30240;47.418;0.700;2023-03-18T09:22:04;99710.21728515625;;;12.86;83.47
44531;BME280;30240;47.418;0.700;2023-03-18T09:24:28;99700.732421875;;;12.56;83.78
44531;BME280;30240;47.418;0.700;2023-03-18T09:26:53;99715.8935546875;;;12.72;83.89
44531;BME280;30240;47.418;0.700;2023-03-18T09:29:18;99715.8935546875;;;12.72;83.89
44531;BME280;30240;47.418;0.700;2023-03-18T09:31:43;99726.37329101562;;;12.45;83.65
44531;BME280;30240;47.418;0.700;2023-03-18T09:34:08;99734.814453125;;;12.31;83.62
44531;BME280;30240;47.418;0.700;2023-03-18T09:36:34;99725.146484375;;;12.45;84.4
44531;BME280;30240;47.418;0.700;2023-03-18T09:38:59;99746.42333984375;;;12.18;83.86
44531;BME280;30240;47.418;0.700;2023-03-18T09:41:28;99746.42333984375;;;12.18;83.86
44531;BME280;30240;47.418;0.700;2023-03-18T09:43:53;99744.50073242188;;;12.24;83.97
44531;BME280;30240;47.418;0.700;2023-03-18T09:46:20;99754.77905273438;;;12.27;83.94
44531;BME280;30240;47.418;0.700;2023-03-18T09:48:44;99765.00244140625;;;12.37;84.26
44531;BME280;30240;47.418;0.700;2023-03-18T09:51:09;99766.30249023438;;;12.33;84.0
44531;BME280;30240;47.418;0.700;2023-03-18T09:51:17;99766.30249023438;;;12.33;84.0
44531;BME280;30240;47.418;0.700;2023-03-18T09:53:36;99766.30249023438;;;12.33;84.0
44531;BME280;30240;47.418;0.700;2023-03-18T09:55:55;99777.15454101562;;;12.4;84.04
44531;BME280;30240;47.418;0.700;2023-03-18T09:58:22;99778.10668945312;;;12.49;84.14
44531;BME280;30240;47.418;0.700;2023-03-18T10:00:44;99776.45263671875;;;12.45;84.21
44531;BME280;30240;47.418;0.700;2023-03-18T10:03:11;99779.3212890625;;;12.41;84.36
44531;BME280;30240;47.418;0.700;2023-03-18T10:05:39;99779.3212890625;;;12.41;84.36
44531;BME280;30240;47.418;0.700;2023-03-18T10:08:01;99791.4306640625;;;12.65;84.45
44531;BME280;30240;47.418;0.700;2023-03-18T10:10:27;99799.42016601562;;;12.63;84.33
44531;BME280;30240;47.418;0.700;2023-03-18T10:12:51;99797.25952148438;;;12.48;84.39
44531;BME280;30240;47.418;0.700;2023-03-18T10:15:16;99807.70263671875;;;12.51;84.3
44531;BME280;30240;47.418;0.700;2023-03-18T10:17:41;99807.70263671875;;;12.51;84.3
44531;BME280;30240;47.418;0.700;2023-03-18T10:20:15;99810.595703125;;;12.34;84.6
44531;BME280;30240;47.418;0.700;2023-03-18T10:22:40;99800.50659179688;;;12.31;84.58
44531;BME280;30240;47.418;0.700;2023-03-18T10:22:48;99800.50659179688;;;12.31;84.58
44531;BME280;30240;47.418;0.700;2023-03-18T10:24:59;99795.9716796875;;;12.45;84.74
44531;BME280;30240;47.418;0.700;2023-03-18T10:27:23;99800.67138671875;;;12.76;84.67
44531;BME280;30240;47.418;0.700;2023-03-18T10:29:46;99800.67138671875;;;12.76;84.67
44531;BME280;30240;47.418;0.700;2023-03-18T10:32:14;99804.20532226562;;;12.75;84.42
44531;BME280;30240;47.418;0.700;2023-03-18T10:34:38;99800.36010742188;;;12.41;84.28
44531;BME280;30240;47.418;0.700;2023-03-18T10:37:04;99796.923828125;;;12.49;84.32
44531;BME280;30240;47.418;0.700;2023-03-18T10:39:25;99791.79077148438;;;12.46;84.19
44531;BME280;30240;47.418;0.700;2023-03-18T10:41:50;99792.15698242188;;;12.63;84.41
44531;BME280;30240;47.418;0.700;2023-03-18T10:44:16;99792.15698242188;;;12.63;84.41
44531;BME280;30240;47.418;0.700;2023-03-18T10:46:40;99789.20288085938;;;12.48;84.13
44531;BME280;30240;47.418;0.700;2023-03-18T10:49:06;99779.9072265625;;;12.46;84.02
44531;BME280;30240;47.418;0.700;2023-03-18T10:51:31;99794.88525390625;;;12.6;84.0
44531;BME280;30240;47.418;0.700;2023-03-18T10:53:56;99779.248046875;;;12.55;83.99
44531;BME280;30240;47.418;0.700;2023-03-18T10:56:19;99779.248046875;;;12.55;83.99
44531;BME280;30240;47.418;0.700;2023-03-18T10:58:44;99776.6357421875;;;12.8;83.89
44531;BME280;30240;47.418;0.700;2023-03-18T11:01:10;99754.99877929688;;;12.76;83.69
44531;BME280;30240;47.418;0.700;2023-03-18T11:03:35;99774.37744140625;;;13.1;83.77
44531;BME280;30240;47.418;0.700;2023-03-18T11:06:01;99742.91381835938;;;12.92;83.53
44531;BME280;30240;47.418;0.700;2023-03-18T11:08:29;99742.91381835938;;;12.92;83.53
44531;BME280;30240;47.418;0.700;2023-03-18T11:10:48;99748.73657226562;;;12.97;83.72
44531;BME280;30240;47.418;0.700;2023-03-18T11:13:15;99755.64575195312;;;13.08;83.58
44531;BME280;30240;47.418;0.700;2023-03-18T11:15:47;99754.77905273438;;;13.12;83.56
44531;BME280;30240;47.418;0.700;2023-03-18T11:18:04;99742.73681640625;;;13.03;83.6
44531;BME280;30240;47.418;0.700;2023-03-18T11:20:32;99742.73681640625;;;13.03;83.6
44531;BME280;30240;47.418;0.700;2023-03-18T11:23:03;99754.27856445312;;;13.19;83.79
44531;BME280;30240;47.418;0.700;2023-03-18T11:25:20;99767.09594726562;;;12.84;84.7